Friday, May 25, 2018, 11:51 AM CDT
Back to Local

KENW, Kenosha Regional Airport

Location: Kenosha, WI, United States Lat: 42.6
Local Time: 11:51 AM CDT (16:51 GMT) Lon: -87.933
Time Zone: US/Central Elev: 741 ft

Show me the last for .
Show Decoded

2018-05-25 10:53 METAR KENW 251553Z 23007G16KT 10SM CLR 28/17 A2991 RMK AO2 SLP124 T02830172 =
2018-05-25 09:53 METAR KENW 251453Z 24010KT 10SM CLR 27/17 A2992 RMK AO2 SLP126 T02670172 58006 =
2018-05-25 08:53 METAR KENW 251353Z 23009KT 10SM CLR 26/16 A2993 RMK AO2 SLP130 T02560161 =
2018-05-25 07:53 METAR KENW 251253Z 21006KT 10SM CLR 23/14 A2994 RMK AO2 SLP133 T02280144 =
2018-05-25 06:53 METAR KENW 251153Z 22005KT 10SM CLR 21/13 A2993 RMK AO2 SLP132 T02060128 10206
                 20161 56010 =
2018-05-25 05:53 METAR KENW 251053Z AUTO 22006KT 10SM CLR 19/11 A2994 RMK AO2 SLP134 T01940111 =
2018-05-25 04:53 METAR KENW 250953Z AUTO 21004KT 10SM CLR 19/11 A2995 RMK AO2 SLP137 T01890111 =
2018-05-25 03:53 METAR KENW 250853Z AUTO 21006KT 10SM CLR 19/11 A2997 RMK AO2 SLP143 T01940111
                 56016 =
2018-05-25 02:53 METAR KENW 250753Z AUTO 21005KT 10SM CLR 18/12 A2998 RMK AO2 SLP148 T01830117 =
2018-05-25 01:53 METAR KENW 250653Z AUTO 20004KT 10SM CLR 19/12 A2999 RMK AO2 SLP152 T01890117 =
2018-05-25 00:53 METAR KENW 250553Z AUTO 20004KT 10SM CLR 19/12 A3001 RMK AO2 SLP160 T01890117
                 10250 20189 402830106 58005 =
2018-05-24 23:53 METAR KENW 250453Z AUTO 18006KT 10SM CLR 19/11 A3002 RMK AO2 SLP162 T01940111 =
2018-05-24 22:53 METAR KENW 250353Z AUTO 17007KT 10SM CLR 20/11 A3002 RMK AO2 SLP162 T02000111 =
2018-05-24 21:53 METAR KENW 250253Z AUTO 17007KT 10SM CLR 20/11 A3003 RMK AO2 SLP165 T02000111
                 56006 =
2018-05-24 20:53 METAR KENW 250153Z 16006KT 10SM CLR 21/11 A3003 RMK AO2 SLP166 T02060111 =
2018-05-24 19:53 METAR KENW 250053Z 14008KT 10SM CLR 23/11 A3004 RMK AO2 SLP168 T02330106 =
2018-05-24 18:53 METAR KENW 242353Z 14009KT 10SM CLR 25/12 A3005 RMK AO2 SLP171 T02500117 10278
                 20250 56017 =
2018-05-24 17:53 METAR KENW 242253Z 15009KT 10SM CLR 26/13 A3006 RMK AO2 SLP178 T02610128 =
2018-05-24 16:53 METAR KENW 242153Z 15009KT 10SM CLR 27/13 A3008 RMK AO2 SLP183 T02720133 =
2018-05-24 15:53 METAR KENW 242053Z 14009KT 10SM CLR 28/14 A3010 RMK AO2 SLP190 T02780139 58014 =
2018-05-24 14:53 METAR KENW 241953Z 12010KT 10SM CLR 27/14 A3012 RMK AO2 SLP196 T02720144 =
2018-05-24 13:53 METAR KENW 241853Z 12012KT 7SM CLR 27/14 A3013 RMK AO2 SLP199 T02720144 =
2018-05-24 12:53 METAR KENW 241753Z AUTO 13011KT 10SM CLR 28/15 A3014 RMK AO2 SLP203 T02780150
                 10283 20156 58015 =
2018-05-24 11:53 METAR KENW 241653Z 19009KT 10SM CLR 28/13 A3016 RMK AO2 SLP211 T02780128 =

Support USWX by starting your Amazon purchase here.